Maldives Meteorological Service

METAR

Station
VRMM
METAR VRMM 231300Z 26007KT 9999 FEW018 BKN270 29/25 Q1009 NOSIG=
VRMH
METAR VRMH 231300Z 26009KT 9999 FEW017 FEW018CB BKN110 28/25 Q1009 CB NNE=
VRMK
METAR VRMK 231300Z 24005KT 9999 SCT017 FEW018CB 28/24 Q1011 CB N,NE,S,W=
VRMT
METAR VRMT 231300Z VRB02KT 9999 FEW018TCU 29/25 Q1010=
VRMG
METAR VRMG 231300Z 21003KT 9999 FEW018 BKN270 29/25 Q1010 NOSIG=
Last Updated : 2017-06-23 18:00:38

SPECI

Station
VRMM
VRMH
VRMK
VRMT
VRMG
Last Updated : 2017-06-23 18:00:38